createdAt,value
2018-06-05T00:02:23.016Z,95410.78
2018-06-05T00:04:52.102Z,95415.14
2018-06-05T00:07:21.378Z,95421.02
2018-06-05T00:09:50.082Z,95416.34
2018-06-05T00:12:19.628Z,95412.90
2018-06-05T00:14:48.388Z,95419.11
2018-06-05T00:17:17.536Z,95416.80
2018-06-05T00:19:47.767Z,95421.19
2018-06-05T00:22:16.878Z,95424.27
2018-06-05T00:24:45.966Z,95425.53
2018-06-05T00:27:15.179Z,95427.69
2018-06-05T00:29:44.224Z,95427.69
2018-06-05T00:32:13.442Z,95427.12
2018-06-05T00:34:42.661Z,95432.33
2018-06-05T00:37:11.757Z,95432.85
2018-06-05T00:39:40.833Z,95429.59
2018-06-05T00:42:09.869Z,95429.80
2018-06-05T00:44:39.570Z,95435.81
2018-06-05T00:47:08.715Z,95436.17
2018-06-05T00:49:38.171Z,95435.06
2018-06-05T00:52:08.812Z,95437.47
2018-06-05T00:54:38.100Z,95435.58
2018-06-05T00:57:07.145Z,95430.05
2018-06-05T00:59:36.432Z,95422.83
2018-06-05T01:02:05.494Z,95423.50
2018-06-05T01:04:34.467Z,95428.22
2018-06-05T01:07:03.489Z,95433.95
2018-06-05T01:09:32.591Z,95425.30
2018-06-05T01:12:01.633Z,95421.64
2018-06-05T01:14:30.424Z,95421.63
2018-06-05T01:16:59.440Z,95422.50
2018-06-05T01:19:28.183Z,95426.05
2018-06-05T01:21:57.252Z,95422.83
2018-06-05T01:24:26.333Z,95425.29
2018-06-05T01:26:55.477Z,95423.70
2018-06-05T01:29:24.568Z,95425.91
2018-06-05T01:31:53.592Z,95420.58
2018-06-05T01:34:22.614Z,95420.47
2018-06-05T01:36:51.631Z,95422.06
2018-06-05T01:39:20.612Z,95419.55
2018-06-05T01:41:49.495Z,95419.28
2018-06-05T01:44:18.447Z,95414.95
2018-06-05T01:46:47.470Z,95419.36
2018-06-05T01:49:16.384Z,95417.73
2018-06-05T01:51:45.538Z,95418.13
2018-06-05T01:54:14.497Z,95408.98
2018-06-05T01:56:43.544Z,95421.05
2018-06-05T01:59:12.538Z,95416.88
2018-06-05T02:01:41.549Z,95418.75
2018-06-05T02:04:10.584Z,95416.16
2018-06-05T02:06:39.615Z,95416.77
2018-06-05T02:09:08.515Z,95412.45
2018-06-05T02:11:37.203Z,95414.86
2018-06-05T02:14:06.031Z,95412.83
2018-06-05T02:16:35.457Z,95412.58
2018-06-05T02:19:04.166Z,95418.31
2018-06-05T02:21:32.922Z,95414.05
2018-06-05T02:24:01.623Z,95418.27
2018-06-05T02:26:30.275Z,95427.30
2018-06-05T02:28:59.142Z,95426.97
2018-06-05T02:31:27.921Z,95425.57
2018-06-05T02:33:56.645Z,95426.72
2018-06-05T02:36:25.573Z,95426.86
2018-06-05T02:38:54.348Z,95426.64
2018-06-05T02:41:23.012Z,95432.32
2018-06-05T02:43:51.807Z,95437.45
2018-06-05T02:46:20.744Z,95434.71
2018-06-05T02:48:49.871Z,95437.64
2018-06-05T02:51:18.830Z,95431.03
2018-06-05T02:53:48.154Z,95432.48
2018-06-05T02:56:17.183Z,95431.59
2018-06-05T02:58:45.997Z,95432.59
2018-06-05T03:01:14.883Z,95436.16
2018-06-05T03:03:43.572Z,95441.59
2018-06-05T03:06:12.397Z,95440.38
2018-06-05T03:08:46.912Z,95446.34
2018-06-05T03:11:16.686Z,95447.64
2018-06-05T03:13:45.467Z,95447.75
2018-06-05T03:16:14.214Z,95440.12
2018-06-05T03:18:42.986Z,95440.61
2018-06-05T03:21:11.946Z,95446.70
2018-06-05T03:23:41.101Z,95441.34
2018-06-05T03:26:10.186Z,95443.74
2018-06-05T03:28:39.188Z,95442.11
2018-06-05T03:31:08.317Z,95446.12
2018-06-05T03:33:37.429Z,95441.56
2018-06-05T03:36:06.491Z,95449.45
2018-06-05T03:38:35.305Z,95449.56
2018-06-05T03:41:04.389Z,95446.45
2018-06-05T03:43:33.269Z,95448.97
2018-06-05T03:46:02.269Z,95448.75
2018-06-05T03:48:31.311Z,95455.74
2018-06-05T03:51:00.118Z,95458.16
2018-06-05T03:53:29.080Z,95449.64
2018-06-05T03:55:57.876Z,95448.31
2018-06-05T03:58:26.553Z,95444.31
2018-06-05T04:00:55.297Z,95443.28
2018-06-05T04:03:23.987Z,95450.64
2018-06-05T04:05:53.121Z,95446.90
2018-06-05T04:08:22.129Z,95456.09
2018-06-05T04:10:51.227Z,95455.31
2018-06-05T04:13:20.097Z,95448.27
2018-06-05T04:15:49.123Z,95445.30
2018-06-05T04:18:18.228Z,95452.27
2018-06-05T04:20:47.189Z,95459.81
2018-06-05T04:23:16.169Z,95460.48
2018-06-05T04:25:45.031Z,95465.05
2018-06-05T04:28:14.171Z,95466.13
2018-06-05T04:30:43.149Z,95463.58
2018-06-05T04:33:12.115Z,95459.57
2018-06-05T04:35:41.341Z,95464.75
2018-06-05T04:38:10.436Z,95462.04
2018-06-05T04:40:39.183Z,95467.44
2018-06-05T04:43:07.970Z,95470.48
2018-06-05T04:45:36.748Z,95471.59
2018-06-05T04:48:05.916Z,95474.23
2018-06-05T04:50:34.911Z,95475.16
2018-06-05T04:53:03.901Z,95474.20
2018-06-05T04:55:32.750Z,95469.09
2018-06-05T04:58:01.823Z,95466.44
2018-06-05T05:00:30.765Z,95467.57
2018-06-05T05:03:00.414Z,95472.16
2018-06-05T05:05:29.467Z,95478.83
2018-06-05T05:07:58.503Z,95483.65
2018-06-05T05:10:27.352Z,95483.05
2018-06-05T05:12:56.094Z,95479.22
2018-06-05T05:15:24.933Z,95486.83
2018-06-05T05:17:53.721Z,95489.86
2018-06-05T05:20:22.755Z,95490.66
2018-06-05T05:22:51.726Z,95495.28
2018-06-05T05:25:20.861Z,95497.30
2018-06-05T05:27:50.636Z,95498.48
2018-06-05T05:30:19.968Z,95505.08
2018-06-05T05:32:49.712Z,95503.99
2018-06-05T05:35:18.701Z,95510.28
2018-06-05T05:37:47.769Z,95513.58
2018-06-05T05:40:16.946Z,95517.19
2018-06-05T05:42:46.363Z,95512.69
2018-06-05T05:45:15.352Z,95512.33
2018-06-05T05:47:44.363Z,95517.30
2018-06-05T05:50:13.746Z,95509.36
2018-06-05T05:52:42.492Z,95511.18
2018-06-05T05:55:11.307Z,95512.42
2018-06-05T05:57:40.183Z,95513.13
2018-06-05T06:00:09.689Z,95517.20
2018-06-05T06:02:38.519Z,95513.09
2018-06-05T06:05:07.351Z,95517.25
2018-06-05T06:07:37.188Z,95517.26
2018-06-05T06:10:05.931Z,95510.96
2018-06-05T06:12:35.020Z,95516.35
2018-06-05T06:15:04.184Z,95521.37
2018-06-05T06:17:33.387Z,95516.55
2018-06-05T06:20:06.801Z,95528.02
2018-06-05T06:22:35.869Z,95524.00
2018-06-05T06:25:05.253Z,95526.95
2018-06-05T06:27:35.872Z,95525.10
2018-06-05T06:30:05.901Z,95529.13
2018-06-05T06:32:35.590Z,95527.37
2018-06-05T06:35:05.222Z,95517.14
2018-06-05T06:37:37.814Z,95515.26
2018-06-05T06:40:07.933Z,95506.69
2018-06-05T06:42:36.798Z,95515.33
2018-06-05T06:45:06.846Z,95519.33
2018-06-05T06:47:35.748Z,95514.58
2018-06-05T06:50:06.043Z,95516.28
2018-06-05T06:52:35.050Z,95523.12
2018-06-05T06:55:03.899Z,95516.53
2018-06-05T06:57:33.993Z,95512.87
2018-06-05T07:00:03.964Z,95507.48
2018-06-05T07:02:33.109Z,95510.17
2018-06-05T07:05:02.271Z,95510.34
2018-06-05T07:07:32.119Z,95515.28
2018-06-05T07:10:00.992Z,95511.98
2018-06-05T07:12:31.408Z,95523.97
2018-06-05T07:15:00.549Z,95512.65
2018-06-05T07:17:31.103Z,95518.66
2018-06-05T07:20:02.396Z,95513.08
2018-06-05T07:22:31.300Z,95514.95
2018-06-05T07:25:04.970Z,95509.36
2018-06-05T07:27:36.454Z,95507.13
2018-06-05T07:30:05.746Z,95497.20
2018-06-05T07:32:37.664Z,95501.34
2018-06-05T07:35:38.005Z,95502.09
2018-06-05T07:38:19.333Z,95505.34
2018-06-05T07:40:49.879Z,95504.97
2018-06-05T07:43:26.382Z,95501.98
2018-06-05T07:45:58.120Z,95503.84
2018-06-05T07:48:33.391Z,95494.29
2018-06-05T07:51:15.454Z,95494.11
2018-06-05T07:55:02.012Z,95495.09
2018-06-05T07:57:48.252Z,95485.74
2018-06-05T08:00:34.892Z,95490.94
2018-06-05T08:03:11.398Z,95493.11
2018-06-05T08:24:47.182Z,95496.48
2018-06-05T08:27:32.367Z,95498.47
2018-06-05T08:37:16.491Z,95513.08
2018-06-05T08:40:25.419Z,95515.31
2018-06-05T08:43:01.048Z,95514.66
2018-06-05T08:45:41.297Z,95515.59
2018-06-05T08:48:37.172Z,95514.89
2018-06-05T08:54:16.035Z,95515.91
2018-06-05T08:57:04.193Z,95521.14
2018-06-05T08:59:44.473Z,95522.05
2018-06-05T09:05:41.779Z,95519.52
2018-06-05T09:08:23.399Z,95520.95
2018-06-05T09:16:53.271Z,95508.50
2018-06-05T09:19:59.942Z,95509.14
2018-06-05T09:22:41.259Z,95517.35
2018-06-05T09:32:08.854Z,95519.78
2018-06-05T09:35:25.394Z,95519.84
2018-06-05T09:40:06.650Z,95512.50
2018-06-05T09:49:04.075Z,95498.13
2018-06-05T10:07:41.408Z,95514.13
2018-06-05T10:10:34.093Z,95510.49
2018-06-05T10:13:36.763Z,95524.83
2018-06-05T10:16:09.291Z,95543.05
2018-06-05T10:22:02.589Z,95548.86
2018-06-05T10:24:36.337Z,95551.96
2018-06-05T10:27:09.113Z,95560.20
2018-06-05T10:29:43.900Z,95568.27
2018-06-05T10:35:16.892Z,95570.80
2018-06-05T10:38:08.136Z,95560.41
2018-06-05T10:40:43.368Z,95547.89
2018-06-05T10:43:21.596Z,95534.05
2018-06-05T10:46:32.185Z,95524.11
2018-06-05T10:49:35.121Z,95513.61
2018-06-05T10:52:10.050Z,95512.10
2018-06-05T10:54:40.126Z,95516.65
2018-06-05T10:57:13.635Z,95527.73
2018-06-05T10:59:42.832Z,95535.74
2018-06-05T11:02:13.076Z,95536.61
2018-06-05T11:04:42.144Z,95534.05
2018-06-05T11:07:11.057Z,95530.78
2018-06-05T11:09:40.228Z,95523.34
2018-06-05T11:12:09.328Z,95523.64
2018-06-05T11:14:38.525Z,95528.75
2018-06-05T11:17:07.660Z,95542.00
2018-06-05T11:19:37.611Z,95534.91
2018-06-05T11:22:07.929Z,95525.91
2018-06-05T11:24:39.373Z,95527.49
2018-06-05T11:27:09.205Z,95527.07
2018-06-05T11:29:41.894Z,95525.08
2018-06-05T11:32:14.904Z,95524.48
2018-06-05T11:34:46.710Z,95525.44
2018-06-05T11:37:18.104Z,95522.16
2018-06-05T11:39:49.080Z,95525.38
2018-06-05T11:42:19.102Z,95510.64
2018-06-05T11:44:48.782Z,95505.94
2018-06-05T11:47:18.076Z,95500.61
2018-06-05T11:49:48.010Z,95501.21
2018-06-05T11:52:17.208Z,95498.09
2018-06-05T11:55:01.204Z,95494.84
2018-06-05T11:57:31.460Z,95494.63
2018-06-05T12:00:17.486Z,95494.88
2018-06-05T12:02:50.517Z,95485.20
2018-06-05T12:05:22.513Z,95491.66
2018-06-05T12:07:58.616Z,95490.22
2018-06-05T12:10:30.350Z,95489.93
2018-06-05T12:13:03.703Z,95486.66
2018-06-05T12:15:32.837Z,95485.46
2018-06-05T12:18:05.687Z,95490.76
2018-06-05T12:20:40.371Z,95494.14
2018-06-05T12:23:14.318Z,95496.23
2018-06-05T12:25:45.459Z,95490.77
2018-06-05T12:28:16.208Z,95487.38
2018-06-05T12:30:46.492Z,95474.08
2018-06-05T12:33:15.670Z,95476.79
2018-06-05T12:35:48.381Z,95479.81
2018-06-05T12:38:19.295Z,95475.84
2018-06-05T12:40:50.247Z,95474.52
2018-06-05T12:43:19.833Z,95469.89
2018-06-05T12:45:55.623Z,95467.20
2018-06-05T12:48:32.700Z,95463.06
2018-06-05T12:51:06.786Z,95455.14
2018-06-05T12:53:47.512Z,95449.73
2018-06-05T12:56:30.946Z,95450.09
2018-06-05T12:59:06.314Z,95449.92
2018-06-05T13:01:48.315Z,95441.95
2018-06-05T13:04:25.767Z,95435.45
2018-06-05T13:07:00.659Z,95426.88
2018-06-05T13:09:48.698Z,95432.79
2018-06-05T13:12:18.731Z,95427.98
2018-06-05T13:14:53.345Z,95412.80
2018-06-05T13:17:25.744Z,95414.98
2018-06-05T13:19:57.185Z,95415.41
2018-06-05T13:22:26.117Z,95410.84
2018-06-05T13:24:55.462Z,95410.08
2018-06-05T13:27:25.903Z,95407.97
2018-06-05T13:29:55.820Z,95401.71
2018-06-05T13:32:27.498Z,95399.54
2018-06-05T13:34:56.441Z,95395.56
2018-06-05T13:37:25.411Z,95397.75
2018-06-05T13:39:55.466Z,95395.23
2018-06-05T13:42:33.155Z,95395.06
2018-06-05T13:45:04.983Z,95400.13
2018-06-05T13:47:51.440Z,95396.50
2018-06-05T13:50:24.092Z,95393.85
2018-06-05T13:53:03.069Z,95395.44
2018-06-05T13:55:51.114Z,95397.25
2018-06-05T14:01:02.805Z,95397.05
2018-06-05T14:03:35.523Z,95398.17
2018-06-05T14:06:10.797Z,95403.95
2018-06-05T14:09:05.066Z,95402.30
2018-06-05T14:11:40.899Z,95407.11
2018-06-05T14:15:27.974Z,95407.15
2018-06-05T14:18:25.580Z,95401.88
2018-06-05T14:24:20.427Z,95392.73
2018-06-05T14:39:12.472Z,95385.09
2018-06-05T14:42:24.391Z,95383.45
2018-06-05T14:49:52.288Z,95389.23
2018-06-05T14:52:47.772Z,95401.50
2018-06-05T14:55:30.895Z,95394.12
2018-06-05T14:58:21.973Z,95397.97
2018-06-05T15:01:24.561Z,95398.13
2018-06-05T15:04:38.577Z,95398.19
2018-06-05T15:10:42.485Z,95409.95
2018-06-05T15:13:21.343Z,95409.31
2018-06-05T15:16:07.267Z,95418.22
2018-06-05T15:18:58.761Z,95425.77
2018-06-05T15:31:28.715Z,95425.63
2018-06-05T15:34:26.287Z,95449.63
2018-06-05T15:37:15.546Z,95449.14
2018-06-05T15:47:42.828Z,95457.31
2018-06-05T15:50:36.424Z,95453.96
2018-06-05T15:53:33.718Z,95457.93
2018-06-05T15:56:15.779Z,95458.75
2018-06-05T16:01:42.446Z,95459.78
2018-06-05T16:04:57.285Z,95454.75
2018-06-05T16:14:00.044Z,95461.93
2018-06-05T16:16:52.755Z,95456.11
2018-06-05T16:22:36.045Z,95451.52
2018-06-05T16:25:31.564Z,95454.39
2018-06-05T16:28:21.790Z,95455.34
2018-06-05T16:31:13.467Z,95462.30
2018-06-05T16:34:19.432Z,95464.45
2018-06-05T16:37:19.765Z,95462.74
2018-06-05T16:41:53.190Z,95466.30
2018-06-05T16:44:37.159Z,95461.81
2018-06-05T16:53:37.864Z,95462.84
2018-06-05T16:57:18.164Z,95457.70
2018-06-05T17:03:34.903Z,95459.34
2018-06-05T17:19:28.895Z,95462.58
2018-06-05T17:23:04.870Z,95469.55
2018-06-05T17:33:39.095Z,95478.65
2018-06-05T17:36:42.825Z,95477.74
2018-06-05T17:39:42.971Z,95484.54
2018-06-05T17:45:32.694Z,95488.69
2018-06-05T17:48:24.856Z,95494.80
2018-06-05T17:51:15.795Z,95495.16
2018-06-05T17:55:15.519Z,95497.42
2018-06-05T18:01:03.552Z,95504.13
2018-06-05T18:10:59.811Z,95511.79
2018-06-05T18:17:07.076Z,95515.64
2018-06-05T18:20:00.267Z,95527.08
2018-06-05T18:22:52.094Z,95529.47
2018-06-05T18:25:47.002Z,95530.26
2018-06-05T18:28:29.510Z,95530.59
2018-06-05T18:31:20.566Z,95530.19
2018-06-05T18:34:07.117Z,95524.83
2018-06-05T18:36:57.293Z,95532.67
2018-06-05T18:40:14.540Z,95535.42
2018-06-05T18:43:04.995Z,95537.66
2018-06-05T18:45:47.444Z,95538.42
2018-06-05T18:51:49.994Z,95548.74
2018-06-05T18:54:39.241Z,95547.48
2018-06-05T18:57:23.776Z,95556.45
2018-06-05T19:00:13.932Z,95563.72
2018-06-05T19:05:55.059Z,95569.87
2018-06-05T19:08:32.679Z,95569.61
2018-06-05T19:11:18.771Z,95575.75
2018-06-05T19:14:18.843Z,95574.47
2018-06-05T19:17:34.793Z,95585.94
2018-06-05T19:20:26.874Z,95585.53
2018-06-05T19:23:01.886Z,95584.89
2018-06-05T19:25:47.943Z,95588.95
2018-06-05T19:28:25.019Z,95593.46
2018-06-05T19:31:01.762Z,95592.98
2018-06-05T19:33:40.611Z,95602.05
2018-06-05T19:36:24.100Z,95615.92
2018-06-05T19:39:01.906Z,95617.03
2018-06-05T19:41:35.443Z,95616.34
2018-06-05T19:44:09.034Z,95616.94
2018-06-05T19:46:41.669Z,95622.62
2018-06-05T19:49:20.392Z,95632.84
2018-06-05T19:52:05.309Z,95630.24
2018-06-05T19:54:38.071Z,95632.53
2018-06-05T19:57:12.879Z,95636.23
2018-06-05T19:59:44.378Z,95639.86
2018-06-05T20:02:20.846Z,95636.50
2018-06-05T20:04:53.206Z,95636.66
2018-06-05T20:07:22.208Z,95634.95
2018-06-05T20:09:55.720Z,95636.13
2018-06-05T20:12:28.401Z,95642.59
2018-06-05T20:15:03.002Z,95640.51
2018-06-05T20:17:33.853Z,95640.68
2018-06-05T20:20:04.688Z,95637.41
2018-06-05T20:22:39.028Z,95640.84
2018-06-05T20:25:10.949Z,95640.45
2018-06-05T20:27:45.606Z,95634.28
2018-06-05T20:30:17.353Z,95632.39
2018-06-05T20:32:48.988Z,95633.17
2018-06-05T20:35:25.807Z,95634.41
2018-06-05T20:37:56.336Z,95648.50
2018-06-05T20:40:27.867Z,95646.39
2018-06-05T20:43:06.522Z,95649.91
2018-06-05T20:45:36.628Z,95648.56
2018-06-05T20:48:06.991Z,95645.41
2018-06-05T20:50:39.147Z,95647.66
2018-06-05T20:53:09.013Z,95649.91
2018-06-05T20:55:38.389Z,95648.27
2018-06-05T20:58:08.695Z,95650.64
2018-06-05T21:00:38.524Z,95654.65
2018-06-05T21:03:11.653Z,95656.73
2018-06-05T21:05:44.465Z,95660.44
2018-06-05T21:08:15.608Z,95672.11
2018-06-05T21:10:47.609Z,95667.45
2018-06-05T21:13:20.207Z,95661.95
2018-06-05T21:15:52.419Z,95663.20
2018-06-05T21:18:22.798Z,95669.91
2018-06-05T21:20:53.032Z,95666.63
2018-06-05T21:23:22.237Z,95667.03
2018-06-05T21:25:54.329Z,95671.48
2018-06-05T21:28:25.666Z,95671.44
2018-06-05T21:30:58.811Z,95678.32
2018-06-05T21:33:29.164Z,95682.08
2018-06-05T21:36:00.484Z,95686.23
2018-06-05T21:38:29.561Z,95685.92
2018-06-05T21:41:00.426Z,95686.94
2018-06-05T21:43:29.709Z,95689.89
2018-06-05T21:46:01.002Z,95684.34
2018-06-05T21:48:31.035Z,95688.62
2018-06-05T21:51:00.198Z,95691.02
2018-06-05T21:53:29.020Z,95697.63
2018-06-05T21:55:57.911Z,95703.87
2018-06-05T21:58:26.799Z,95699.21
2018-06-05T22:00:56.447Z,95705.45
2018-06-05T22:03:25.577Z,95706.09
2018-06-05T22:05:56.572Z,95705.90
2018-06-05T22:08:26.198Z,95705.41
2018-06-05T22:10:55.060Z,95700.74
2018-06-05T22:13:24.201Z,95704.11
2018-06-05T22:15:53.311Z,95697.89
2018-06-05T22:18:22.864Z,95696.44
2018-06-05T22:20:51.816Z,95697.98
2018-06-05T22:23:20.653Z,95706.38
2018-06-05T22:25:49.712Z,95703.72
2018-06-05T22:28:18.831Z,95708.80
2018-06-05T22:30:50.658Z,95713.44
2018-06-05T22:33:22.076Z,95707.20
2018-06-05T22:35:52.705Z,95708.64
2018-06-05T22:38:21.724Z,95712.36
2018-06-05T22:40:50.653Z,95716.69
2018-06-05T22:43:20.697Z,95712.88
2018-06-05T22:45:49.421Z,95715.78
2018-06-05T22:48:19.156Z,95717.98
2018-06-05T22:50:47.997Z,95720.95
2018-06-05T22:53:16.839Z,95715.94
2018-06-05T22:55:45.748Z,95713.86
2018-06-05T22:58:15.441Z,95712.30
2018-06-05T23:00:45.564Z,95708.74
2018-06-05T23:03:14.911Z,95713.27
2018-06-05T23:05:44.146Z,95707.55
2018-06-05T23:08:14.262Z,95711.81
2018-06-05T23:10:43.777Z,95711.48
2018-06-05T23:13:12.774Z,95714.45
2018-06-05T23:15:41.676Z,95715.38
2018-06-05T23:18:11.165Z,95708.81
2018-06-05T23:20:40.390Z,95712.34
2018-06-05T23:23:10.571Z,95714.05
2018-06-05T23:25:40.772Z,95715.16
2018-06-05T23:28:12.049Z,95720.66
2018-06-05T23:30:40.836Z,95721.28
2018-06-05T23:33:09.897Z,95715.08
2018-06-05T23:35:38.999Z,95710.44
2018-06-05T23:38:08.229Z,95710.10
2018-06-05T23:40:37.392Z,95707.84
2018-06-05T23:43:07.067Z,95712.89
2018-06-05T23:45:36.638Z,95712.52
2018-06-05T23:48:05.899Z,95711.95
2018-06-05T23:50:35.225Z,95722.58
2018-06-05T23:53:05.423Z,95722.39
2018-06-05T23:55:34.486Z,95721.39
2018-06-05T23:58:05.343Z,95722.66
